Ina Lehmann — V2GZ2 — position and weather

sailwx.info

Track history (hours):
 
Tides and Currents Weather Stations Pressure Air Temp Water Temp Dewpoint Dewpoint Depression Visibility Wind Speed Wind Dir Waves Ship Positions

Ina Lehmann

Last reported at 2018-Jul-20 14:00 UTC. Time now 2018-Jul-21 13:46 UTC.
Position N 60°31' E 019°04'.

Length 90 m; draft 5.3 m.

Type: Cargo ship. MMSI: 304585000.

Date/timePositionNaut miles runAvg speedWind from/ knotsBaromVisibWave heightAir tempDewpointWater temp
2018-Jul-20 14:00N 60°31' E 019°04'611.3
2018-Jul-20 13:30N 60°25' E 019°02'611.2
2018-Jul-20 12:57N 60°19' E 019°01'511.3
2018-Jul-20 12:30N 60°14' E 019°03'611.1
2018-Jul-20 12:00N 60°09' E 019°09'611.2
2018-Jul-20 11:30N 60°05' E 019°16'611.2
2018-Jul-20 11:00N 60°01' E 019°23'611.2
2018-Jul-20 10:30N 59°56' E 019°31'611.1
2018-Jul-20 10:00N 59°52' E 019°38'611.4
2018-Jul-20 09:29N 59°48' E 019°45'1311.3
2018-Jul-20 08:19N 59°46' E 020°11'1211.0
2018-Jul-20 07:13N 59°42' E 020°34'311.4
2018-Jul-20 06:59N 59°41' E 020°39'511.5
2018-Jul-20 06:30N 59°39' E 020°49'611.7
2018-Jul-20 06:00N 59°37' E 021°00'611.6
2018-Jul-20 05:30N 59°35' E 021°11'611.4
2018-Jul-20 05:00N 59°34' E 021°22'611.5
2018-Jul-20 04:30N 59°34' E 021°33'611.6
2018-Jul-20 04:00N 59°35' E 021°45'711.7
2018-Jul-20 03:22N 59°35' E 021°59'411.9
2018-Jul-20 03:00N 59°35' E 022°08'611.9
2018-Jul-20 02:30N 59°35' E 022°20'611.8
2018-Jul-20 02:00N 59°35' E 022°31'611.8
2018-Jul-20 01:30N 59°35' E 022°43'710.9
2018-Jul-20 00:53N 59°35' E 022°56'410.4
2018-Jul-20 00:29N 59°36' E 023°04'611.7
2018-Jul-20 00:00N 59°38' E 023°15'611.8
2018-Jul-19 23:30N 59°39' E 023°26'611.9
2018-Jul-19 23:00N 59°41' E 023°37'611.8
2018-Jul-19 22:30N 59°42' E 023°49'2112.0
2018-Jul-19 20:45N 59°48' E 024°29'311.7
2018-Jul-19 20:30N 59°48' E 024°35'611.4
2018-Jul-19 20:00N 59°49' E 024°46'711.9
2018-Jul-19 19:25N 59°51' E 024°60'4011.0
2018-Jul-19 15:46N 60°07' E 026°13'311.2
2018-Jul-19 15:30N 60°09' E 026°17'611.2
2018-Jul-19 15:00N 60°13' E 026°24'1111.5
2018-Jul-19 14:00N 60°21' E 026°40'611.6
2018-Jul-19 13:31N 60°24' E 026°51'611.0
2018-Jul-19 13:00N 60°28' E 026°59'610.4
2018-Jul-19 12:29N 60°30' E 027°09'2 0.1
2018-Jul-18 17:01N 60°32' E 027°10'0 0.5
2018-Jul-18 17:00N 60°32' E 027°10'0 0.0
2018-Jul-17 04:37N 60°32' E 027°10'0 0.0
2018-Jul-17 04:28N 60°32' E 027°10'0 0.0
2018-Jul-17 00:43N 60°32' E 027°10'0 0.0
2018-Jul-17 00:29N 60°32' E 027°10'6 5.8
2018-Jul-16 23:31N 60°26' E 027°08'510.4
2018-Jul-16 23:00N 60°21' E 027°04'510.9
2018-Jul-16 22:30N 60°22' E 026°53'511.0
2018-Jul-16 22:01N 60°22' E 026°42'510.7
2018-Jul-16 21:30N 60°18' E 026°34'511.0
2018-Jul-16 21:00N 60°15' E 026°26'5 9.9
2018-Jul-16 20:30N 60°10' E 026°24'510.3
2018-Jul-16 20:00N 60°05' E 026°25'611.1
2018-Jul-16 19:30N 59°59' E 026°27'713.8
2018-Jul-16 19:00N 59°52' E 026°30'610.8
2018-Jul-16 18:26N 59°46' E 026°32'511.1
2018-Jul-16 17:58N 59°43' E 026°40'510.6
2018-Jul-16 17:30N 59°41' E 026°48'711.8
2018-Jul-16 16:53N 59°37' E 027°01'4 7.8
2018-Jul-16 16:26N 59°36' E 027°07'511.3
2018-Jul-16 16:00N 59°33' E 027°16'611.8
2018-Jul-16 15:30N 59°31' E 027°26'11 3.8
2018-Jul-16 12:43N 59°25' E 027°44'0 0.0
2018-Jul-16 12:22N 59°25' E 027°44'0 0.0
2018-Jul-16 11:49N 59°25' E 027°44'0 0.0
2018-Jul-16 11:21N 59°25' E 027°44'0 0.0
2018-Jul-16 10:55N 59°25' E 027°44'0 0.0
2018-Jul-16 10:24N 59°25' E 027°44'0 0.0
2018-Jul-16 09:58N 59°25' E 027°44'0 0.0
2018-Jul-16 08:48N 59°25' E 027°44'0 0.0
2018-Jul-16 08:30N 59°25' E 027°44'0 0.0
2018-Jul-16 07:50N 59°25' E 027°44'0 0.0
2018-Jul-16 07:28N 59°25' E 027°44'0 0.0
2018-Jul-16 06:55N 59°25' E 027°44'0 0.0
2018-Jul-16 06:08N 59°25' E 027°44'0 0.0
2018-Jul-16 05:48N 59°25' E 027°44'0 0.0
2018-Jul-16 05:20N 59°25' E 027°44'0 0.0
2018-Jul-16 04:54N 59°25' E 027°44'0 0.0
2018-Jul-16 04:26N 59°25' E 027°44'0 0.0
2018-Jul-16 03:58N 59°25' E 027°44'0 0.0
2018-Jul-16 03:30N 59°25' E 027°44'0 0.0
2018-Jul-16 02:54N 59°25' E 027°44'0 0.0
2018-Jul-16 02:25N 59°25' E 027°44'0 0.0
2018-Jul-16 02:00N 59°25' E 027°44'0 0.0
2018-Jul-16 01:24N 59°25' E 027°44'0 0.0
2018-Jul-16 01:00N 59°25' E 027°44'0 0.0
2018-Jul-16 00:20N 59°25' E 027°44'0 0.0
2018-Jul-15 23:58N 59°25' E 027°44'0 0.0
2018-Jul-15 23:30N 59°25' E 027°44'0 0.0
2018-Jul-15 23:00N 59°25' E 027°44'0 0.0
2018-Jul-15 22:30N 59°25' E 027°44'0 0.0
2018-Jul-15 22:00N 59°25' E 027°44'0 0.0
2018-Jul-15 21:30N 59°25' E 027°44'0 0.0
2018-Jul-15 21:00N 59°25' E 027°44'0 0.0
2018-Jul-15 20:30N 59°25' E 027°44'0 0.0
2018-Jul-15 19:54N 59°25' E 027°44'0 0.0
2018-Jul-15 19:30N 59°25' E 027°44'0 0.0
2018-Jul-15 18:54N 59°25' E 027°44'0 0.0
2018-Jul-15 18:25N 59°25' E 027°44'0 0.0
2018-Jul-15 17:58N 59°25' E 027°44'0 0.0
2018-Jul-15 17:30N 59°25' E 027°44'0 0.0
2018-Jul-15 17:00N 59°25' E 027°44'0 0.0
2018-Jul-15 16:14N 59°25' E 027°44'0 0.0
2018-Jul-15 15:38N 59°25' E 027°44'0 0.0
2018-Jul-15 14:59N 59°25' E 027°44'0 0.8
2018-Jul-15 14:30N 59°26' E 027°45'5 9.1
2018-Jul-15 14:00N 59°29' E 027°38'611.8
2018-Jul-15 13:31N 59°31' E 027°28'711.9
2018-Jul-15 12:57N 59°34' E 027°16'512.0
2018-Jul-15 12:30N 59°37' E 027°06'612.5
2018-Jul-15 12:00N 59°40' E 026°56'611.6
2018-Jul-15 11:30N 59°42' E 026°45'611.9
2018-Jul-15 11:01N 59°45' E 026°35'611.7
2018-Jul-15 10:30N 59°50' E 026°30'612.2
2018-Jul-15 10:01N 59°56' E 026°26'612.0
2018-Jul-15 09:30N 60°02' E 026°26'612.1
2018-Jul-15 09:00N 60°08' E 026°25'611.8
2018-Jul-15 08:31N 60°14' E 026°25'510.5
2018-Jul-15 08:00N 60°18' E 026°31'611.6
2018-Jul-15 07:30N 60°22' E 026°41'611.8
2018-Jul-15 07:00N 60°24' E 026°51'611.0
2018-Jul-15 06:31N 60°28' E 026°60'1 2.6
2018-Jul-15 05:59N 60°29' E 026°58'0 0.0
2018-Jul-15 05:26N 60°29' E 026°58'0 0.0
2018-Jul-15 04:59N 60°29' E 026°58'0 0.0
2018-Jul-15 04:29N 60°29' E 026°58'0 0.0
2018-Jul-15 03:59N 60°29' E 026°58'0 0.0
2018-Jul-15 03:29N 60°29' E 026°58'0 0.0
2018-Jul-15 02:59N 60°29' E 026°58'0 0.0
2018-Jul-15 02:29N 60°29' E 026°58'0 0.0
2018-Jul-15 01:59N 60°29' E 026°58'0 0.0
2018-Jul-15 01:29N 60°29' E 026°58'0 0.0
2018-Jul-15 00:56N 60°29' E 026°58'0 0.0
2018-Jul-15 00:29N 60°29' E 026°58'0 0.0
2018-Jul-14 23:59N 60°29' E 026°58'0 0.0
2018-Jul-14 23:29N 60°29' E 026°58'0 0.0
2018-Jul-14 22:59N 60°29' E 026°58'0 0.0
2018-Jul-14 22:29N 60°29' E 026°58'0 0.0
2018-Jul-14 21:59N 60°29' E 026°58'0 0.0
2018-Jul-14 21:29N 60°29' E 026°58'0 0.0
2018-Jul-14 20:59N 60°29' E 026°58'0 0.0
2018-Jul-14 20:29N 60°29' E 026°58'0 0.0
2018-Jul-14 19:59N 60°29' E 026°58'0 0.0
2018-Jul-14 19:29N 60°29' E 026°58'0 0.0
2018-Jul-14 18:59N 60°29' E 026°58'0 0.0
2018-Jul-14 18:29N 60°29' E 026°58'0 0.0
2018-Jul-14 17:59N 60°29' E 026°58'0 0.0
2018-Jul-14 17:29N 60°29' E 026°58'0 0.0
2018-Jul-14 16:59N 60°29' E 026°58'0 0.0
2018-Jul-14 16:29N 60°29' E 026°58'0 0.0
2018-Jul-14 15:59N 60°29' E 026°58'0 0.0
2018-Jul-14 15:29N 60°29' E 026°58'0 0.0
2018-Jul-14 14:59N 60°29' E 026°58'0 0.0
2018-Jul-14 14:29N 60°29' E 026°58'0 0.0
2018-Jul-14 13:29N 60°29' E 026°58'0 0.0
2018-Jul-14 12:59N 60°29' E 026°58'0 0.0
2018-Jul-14 12:29N 60°29' E 026°58'0 0.0
2018-Jul-14 11:59N 60°29' E 026°58'0 0.0
2018-Jul-14 11:29N 60°29' E 026°58'0 0.0
2018-Jul-14 10:59N 60°29' E 026°58'0 0.0
2018-Jul-14 10:29N 60°29' E 026°58'0 0.0
2018-Jul-14 09:59N 60°29' E 026°58'0 0.0
2018-Jul-14 09:29N 60°29' E 026°58'0 0.0
2018-Jul-14 08:59N 60°29' E 026°58'0 0.0
2018-Jul-14 08:29N 60°29' E 026°58'0 0.0
2018-Jul-14 07:59N 60°29' E 026°58'0 0.0
2018-Jul-14 07:29N 60°29' E 026°58'0 0.0
2018-Jul-14 06:59N 60°29' E 026°58'0 0.0
2018-Jul-14 06:29N 60°29' E 026°58'0 0.0
2018-Jul-14 05:59N 60°29' E 026°58'0 0.0
2018-Jul-14 05:26N 60°29' E 026°58'0 0.0
2018-Jul-14 04:59N 60°29' E 026°58'0 0.0
2018-Jul-14 04:29N 60°29' E 026°58'0 0.0
2018-Jul-14 03:59N 60°29' E 026°58'0 0.0
2018-Jul-14 03:29N 60°29' E 026°58'0 0.0
2018-Jul-14 02:59N 60°29' E 026°58'0 0.0
2018-Jul-14 02:29N 60°29' E 026°58'0 0.0
2018-Jul-14 01:59N 60°29' E 026°58'0 0.0
2018-Jul-14 01:29N 60°29' E 026°58'0 0.0
2018-Jul-14 00:59N 60°29' E 026°58'0 0.0
2018-Jul-14 00:26N 60°29' E 026°58'0 0.0
2018-Jul-13 23:56N 60°29' E 026°58'0 0.0
2018-Jul-13 23:29N 60°29' E 026°58'0 0.0
2018-Jul-13 22:59N 60°29' E 026°58'0 0.0
2018-Jul-13 22:29N 60°29' E 026°58'0 0.0
2018-Jul-13 21:56N 60°29' E 026°58'0 0.0
2018-Jul-13 21:29N 60°29' E 026°58'0 0.0
2018-Jul-13 20:59N 60°29' E 026°58'0 0.0
2018-Jul-13 20:29N 60°29' E 026°58'0 0.0
2018-Jul-13 19:59N 60°29' E 026°58'0 0.0
2018-Jul-13 19:29N 60°29' E 026°58'0 0.0
2018-Jul-13 18:59N 60°29' E 026°58'0 0.0
2018-Jul-13 18:29N 60°29' E 026°58'0 0.0
2018-Jul-13 17:59N 60°29' E 026°58'0 0.0
2018-Jul-13 17:29N 60°29' E 026°58'0 0.0
2018-Jul-13 16:59N 60°29' E 026°58'0 0.0
2018-Jul-13 16:29N 60°29' E 026°58'0 0.0
2018-Jul-13 15:59N 60°29' E 026°58'0 0.0
2018-Jul-13 15:29N 60°29' E 026°58'0 0.0
2018-Jul-13 14:59N 60°29' E 026°58'0 0.0
2018-Jul-13 14:29N 60°29' E 026°58'0 0.0
2018-Jul-13 13:29N 60°29' E 026°58'0 0.0
2018-Jul-13 12:59N 60°29' E 026°58'0 0.0
2018-Jul-13 12:29N 60°29' E 026°58'0 0.0
2018-Jul-13 11:59N 60°29' E 026°58'0 0.0
2018-Jul-13 11:29N 60°29' E 026°58'0 0.0
2018-Jul-13 10:53N 60°29' E 026°58'0 0.0
2018-Jul-13 10:29N 60°29' E 026°58'0 0.0
2018-Jul-13 09:59N 60°29' E 026°58'0 0.0
2018-Jul-13 09:29N 60°29' E 026°58'0 0.0
2018-Jul-13 08:56N 60°29' E 026°58'0 0.0
2018-Jul-13 08:29N 60°29' E 026°58'0 0.0
2018-Jul-13 07:59N 60°29' E 026°58'0 0.0
2018-Jul-13 07:29N 60°29' E 026°58'0 0.0
2018-Jul-13 06:59N 60°29' E 026°58'0 0.0
2018-Jul-13 06:29N 60°29' E 026°58'0 0.0
2018-Jul-13 05:59N 60°29' E 026°58'0 0.0
2018-Jul-13 05:29N 60°29' E 026°58'0 0.0
2018-Jul-13 04:59N 60°29' E 026°58'0 0.0
2018-Jul-13 04:29N 60°29' E 026°58'0 0.0
2018-Jul-13 03:56N 60°29' E 026°58'0 0.0
2018-Jul-13 03:29N 60°29' E 026°58'0 0.0
2018-Jul-13 02:59N 60°29' E 026°58'0 0.0
2018-Jul-13 02:29N 60°29' E 026°58'0 0.0
2018-Jul-13 01:59N 60°29' E 026°58'0 0.0
2018-Jul-13 01:29N 60°29' E 026°58'0 0.0
2018-Jul-13 00:59N 60°29' E 026°58'0 0.0
2018-Jul-13 00:29N 60°29' E 026°58'0 0.0
2018-Jul-12 23:59N 60°29' E 026°58'0 0.0
2018-Jul-12 23:29N 60°29' E 026°58'0 0.0
2018-Jul-12 22:59N 60°29' E 026°58'0 0.0
2018-Jul-12 22:29N 60°29' E 026°58'0 0.0
2018-Jul-12 21:59N 60°29' E 026°58'0 0.0
2018-Jul-12 21:29N 60°29' E 026°58'0 0.0
2018-Jul-12 20:59N 60°29' E 026°58'0 0.0
2018-Jul-12 20:29N 60°29' E 026°58'0 0.0
2018-Jul-12 19:59N 60°29' E 026°58'0 0.0
2018-Jul-12 19:29N 60°29' E 026°58'0 0.0
2018-Jul-12 18:59N 60°29' E 026°58'0 0.0
2018-Jul-12 18:29N 60°29' E 026°58'0 0.0
2018-Jul-12 17:59N 60°29' E 026°58'0 0.0
2018-Jul-12 17:29N 60°29' E 026°58'0 0.0
2018-Jul-12 16:59N 60°29' E 026°58'0 0.0
2018-Jul-12 16:29N 60°29' E 026°58'0 0.0
2018-Jul-12 15:59N 60°29' E 026°58'0 0.0
2018-Jul-12 15:29N 60°29' E 026°58'0 0.0
2018-Jul-12 14:59N 60°29' E 026°58'0 0.0
2018-Jul-12 14:29N 60°29' E 026°58'0 0.0
2018-Jul-12 13:56N 60°29' E 026°58'0 0.0
2018-Jul-12 13:29N 60°29' E 026°58'0 0.0
2018-Jul-12 12:59N 60°29' E 026°58'0 0.0
2018-Jul-12 12:29N 60°29' E 026°58'0 0.0
2018-Jul-12 11:59N 60°29' E 026°58'0 0.0
2018-Jul-12 11:26N 60°29' E 026°58'0 0.0
2018-Jul-12 10:59N 60°29' E 026°58'0 0.1
2018-Jul-12 10:31N 60°29' E 026°59'2 3.4
2018-Jul-12 10:01N 60°27' E 026°59'510.0
2018-Jul-12 09:31N 60°24' E 026°51'611.1
2018-Jul-12 09:01N 60°22' E 026°41'611.1
2018-Jul-12 08:31N 60°18' E 026°33'611.1
2018-Jul-12 08:01N 60°14' E 026°25'4 7.0
2018-Jul-12 07:30N 60°11' E 026°20'0 0.1
2018-Jul-12 07:00N 60°11' E 026°20'0 0.0
2018-Jul-12 06:30N 60°11' E 026°20'0 0.0
2018-Jul-12 06:00N 60°11' E 026°20'0 0.0
2018-Jul-12 05:30N 60°11' E 026°20'0 0.0
2018-Jul-12 05:00N 60°11' E 026°20'0 0.0
2018-Jul-12 04:31N 60°11' E 026°20'0 0.0
2018-Jul-12 04:00N 60°11' E 026°20'0 0.0
2018-Jul-12 03:30N 60°11' E 026°20'0 0.0
2018-Jul-12 02:57N 60°11' E 026°20'0 0.0
2018-Jul-12 02:30N 60°11' E 026°20'0 0.0
2018-Jul-12 01:57N 60°11' E 026°20'0 0.0
2018-Jul-12 01:30N 60°11' E 026°20'0 0.0
2018-Jul-12 01:00N 60°11' E 026°20'0 0.0
2018-Jul-12 00:30N 60°11' E 026°20'0 0.0
2018-Jul-11 23:59N 60°11' E 026°20'0 0.0
2018-Jul-11 23:28N 60°11' E 026°20'0 0.0
2018-Jul-11 23:00N 60°11' E 026°20'0 0.2
2018-Jul-11 22:30N 60°11' E 026°20'2 3.1
2018-Jul-11 22:00N 60°10' E 026°19'5 9.4
2018-Jul-11 21:30N 60°05' E 026°15'4610.4
2018-Jul-11 17:07N 59°46' E 024°53'110.4
2018-Jul-11 16:59N 59°45' E 024°51'510.3
2018-Jul-11 16:31N 59°44' E 024°41'510.2
2018-Jul-11 16:00N 59°41' E 024°32'510.5
2018-Jul-11 15:31N 59°39' E 024°23'710.5
2018-Jul-11 14:50N 59°36' E 024°11'310.3
2018-Jul-11 14:30N 59°34' E 024°05'610.4
2018-Jul-11 13:56N 59°32' E 023°54'410.4
2018-Jul-11 13:30N 59°29' E 023°47'510.2
2018-Jul-11 13:01N 59°27' E 023°38'810.2
2018-Jul-11 12:14N 59°24' E 023°24'5810.2
2018-Jul-11 06:32N 58°55' E 021°46'010.3
2018-Jul-11 06:30N 58°55' E 021°45'3110.5
2018-Jul-11 03:36N 58°26' E 021°28'  
Track history (hours):
 
Tides and Currents Weather Stations Pressure Air Temp Water Temp Dewpoint Dewpoint Depression Visibility Wind Speed Wind Dir Waves Ship Positions

Ina Lehmann

Last reported at 2018-Jul-20 14:00 UTC. Time now 2018-Jul-21 13:46 UTC.
Position N 60°31' E 019°04'.

Length 90 m; draft 5.3 m.

Type: Cargo ship. MMSI: 304585000.

Date/timePositionNaut miles runAvg speedWind from/ knotsBaromVisibWave heightAir tempDewpointWater temp
2018-Jul-20 14:00N 60°31' E 019°04'611.3
2018-Jul-20 13:30N 60°25' E 019°02'611.2
2018-Jul-20 12:57N 60°19' E 019°01'511.3
2018-Jul-20 12:30N 60°14' E 019°03'611.1
2018-Jul-20 12:00N 60°09' E 019°09'611.2
2018-Jul-20 11:30N 60°05' E 019°16'611.2
2018-Jul-20 11:00N 60°01' E 019°23'611.2
2018-Jul-20 10:30N 59°56' E 019°31'611.1
2018-Jul-20 10:00N 59°52' E 019°38'611.4
2018-Jul-20 09:29N 59°48' E 019°45'1311.3
2018-Jul-20 08:19N 59°46' E 020°11'1211.0
2018-Jul-20 07:13N 59°42' E 020°34'311.4
2018-Jul-20 06:59N 59°41' E 020°39'511.5
2018-Jul-20 06:30N 59°39' E 020°49'611.7
2018-Jul-20 06:00N 59°37' E 021°00'611.6
2018-Jul-20 05:30N 59°35' E 021°11'611.4
2018-Jul-20 05:00N 59°34' E 021°22'611.5
2018-Jul-20 04:30N 59°34' E 021°33'611.6
2018-Jul-20 04:00N 59°35' E 021°45'711.7
2018-Jul-20 03:22N 59°35' E 021°59'411.9
2018-Jul-20 03:00N 59°35' E 022°08'611.9
2018-Jul-20 02:30N 59°35' E 022°20'611.8
2018-Jul-20 02:00N 59°35' E 022°31'611.8
2018-Jul-20 01:30N 59°35' E 022°43'710.9
2018-Jul-20 00:53N 59°35' E 022°56'410.4
2018-Jul-20 00:29N 59°36' E 023°04'611.7
2018-Jul-20 00:00N 59°38' E 023°15'611.8
2018-Jul-19 23:30N 59°39' E 023°26'611.9
2018-Jul-19 23:00N 59°41' E 023°37'611.8
2018-Jul-19 22:30N 59°42' E 023°49'2112.0
2018-Jul-19 20:45N 59°48' E 024°29'311.7
2018-Jul-19 20:30N 59°48' E 024°35'611.4
2018-Jul-19 20:00N 59°49' E 024°46'711.9
2018-Jul-19 19:25N 59°51' E 024°60'4011.0
2018-Jul-19 15:46N 60°07' E 026°13'311.2
2018-Jul-19 15:30N 60°09' E 026°17'611.2
2018-Jul-19 15:00N 60°13' E 026°24'1111.5
2018-Jul-19 14:00N 60°21' E 026°40'611.6
2018-Jul-19 13:31N 60°24' E 026°51'611.0
2018-Jul-19 13:00N 60°28' E 026°59'610.4
2018-Jul-19 12:29N 60°30' E 027°09'2 0.1
2018-Jul-18 17:01N 60°32' E 027°10'0 0.5
2018-Jul-18 17:00N 60°32' E 027°10'0 0.0
2018-Jul-17 04:37N 60°32' E 027°10'0 0.0
2018-Jul-17 04:28N 60°32' E 027°10'0 0.0
2018-Jul-17 00:43N 60°32' E 027°10'0 0.0
2018-Jul-17 00:29N 60°32' E 027°10'6 5.8
2018-Jul-16 23:31N 60°26' E 027°08'510.4
2018-Jul-16 23:00N 60°21' E 027°04'510.9
2018-Jul-16 22:30N 60°22' E 026°53'511.0
2018-Jul-16 22:01N 60°22' E 026°42'510.7
2018-Jul-16 21:30N 60°18' E 026°34'511.0
2018-Jul-16 21:00N 60°15' E 026°26'5 9.9
2018-Jul-16 20:30N 60°10' E 026°24'510.3
2018-Jul-16 20:00N 60°05' E 026°25'611.1
2018-Jul-16 19:30N 59°59' E 026°27'713.8
2018-Jul-16 19:00N 59°52' E 026°30'610.8
2018-Jul-16 18:26N 59°46' E 026°32'511.1
2018-Jul-16 17:58N 59°43' E 026°40'510.6
2018-Jul-16 17:30N 59°41' E 026°48'711.8
2018-Jul-16 16:53N 59°37' E 027°01'4 7.8
2018-Jul-16 16:26N 59°36' E 027°07'511.3
2018-Jul-16 16:00N 59°33' E 027°16'611.8
2018-Jul-16 15:30N 59°31' E 027°26'11 3.8
2018-Jul-16 12:43N 59°25' E 027°44'0 0.0
2018-Jul-16 12:22N 59°25' E 027°44'0 0.0
2018-Jul-16 11:49N 59°25' E 027°44'0 0.0
2018-Jul-16 11:21N 59°25' E 027°44'0 0.0
2018-Jul-16 10:55N 59°25' E 027°44'0 0.0
2018-Jul-16 10:24N 59°25' E 027°44'0 0.0
2018-Jul-16 09:58N 59°25' E 027°44'0 0.0
2018-Jul-16 08:48N 59°25' E 027°44'0 0.0
2018-Jul-16 08:30N 59°25' E 027°44'0 0.0
2018-Jul-16 07:50N 59°25' E 027°44'0 0.0
2018-Jul-16 07:28N 59°25' E 027°44'0 0.0
2018-Jul-16 06:55N 59°25' E 027°44'0 0.0
2018-Jul-16 06:08N 59°25' E 027°44'0 0.0
2018-Jul-16 05:48N 59°25' E 027°44'0 0.0
2018-Jul-16 05:20N 59°25' E 027°44'0 0.0
2018-Jul-16 04:54N 59°25' E 027°44'0 0.0
2018-Jul-16 04:26N 59°25' E 027°44'0 0.0
2018-Jul-16 03:58N 59°25' E 027°44'0 0.0
2018-Jul-16 03:30N 59°25' E 027°44'0 0.0
2018-Jul-16 02:54N 59°25' E 027°44'0 0.0
2018-Jul-16 02:25N 59°25' E 027°44'0 0.0
2018-Jul-16 02:00N 59°25' E 027°44'0 0.0
2018-Jul-16 01:24N 59°25' E 027°44'0 0.0
2018-Jul-16 01:00N 59°25' E 027°44'0 0.0
2018-Jul-16 00:20N 59°25' E 027°44'0 0.0
2018-Jul-15 23:58N 59°25' E 027°44'0 0.0
2018-Jul-15 23:30N 59°25' E 027°44'0 0.0
2018-Jul-15 23:00N 59°25' E 027°44'0 0.0
2018-Jul-15 22:30N 59°25' E 027°44'0 0.0
2018-Jul-15 22:00N 59°25' E 027°44'0 0.0
2018-Jul-15 21:30N 59°25' E 027°44'0 0.0
2018-Jul-15 21:00N 59°25' E 027°44'0 0.0
2018-Jul-15 20:30N 59°25' E 027°44'0 0.0
2018-Jul-15 19:54N 59°25' E 027°44'0 0.0
2018-Jul-15 19:30N 59°25' E 027°44'0 0.0
2018-Jul-15 18:54N 59°25' E 027°44'0 0.0
2018-Jul-15 18:25N 59°25' E 027°44'0 0.0
2018-Jul-15 17:58N 59°25' E 027°44'0 0.0
2018-Jul-15 17:30N 59°25' E 027°44'0 0.0
2018-Jul-15 17:00N 59°25' E 027°44'0 0.0
2018-Jul-15 16:14N 59°25' E 027°44'0 0.0
2018-Jul-15 15:38N 59°25' E 027°44'0 0.0
2018-Jul-15 14:59N 59°25' E 027°44'0 0.8
2018-Jul-15 14:30N 59°26' E 027°45'5 9.1
2018-Jul-15 14:00N 59°29' E 027°38'611.8
2018-Jul-15 13:31N 59°31' E 027°28'711.9
2018-Jul-15 12:57N 59°34' E 027°16'512.0
2018-Jul-15 12:30N 59°37' E 027°06'612.5
2018-Jul-15 12:00N 59°40' E 026°56'611.6
2018-Jul-15 11:30N 59°42' E 026°45'611.9
2018-Jul-15 11:01N 59°45' E 026°35'611.7
2018-Jul-15 10:30N 59°50' E 026°30'612.2
2018-Jul-15 10:01N 59°56' E 026°26'612.0
2018-Jul-15 09:30N 60°02' E 026°26'612.1
2018-Jul-15 09:00N 60°08' E 026°25'611.8
2018-Jul-15 08:31N 60°14' E 026°25'510.5
2018-Jul-15 08:00N 60°18' E 026°31'611.6
2018-Jul-15 07:30N 60°22' E 026°41'611.8
2018-Jul-15 07:00N 60°24' E 026°51'611.0
2018-Jul-15 06:31N 60°28' E 026°60'1 2.6
2018-Jul-15 05:59N 60°29' E 026°58'0 0.0
2018-Jul-15 05:26N 60°29' E 026°58'0 0.0
2018-Jul-15 04:59N 60°29' E 026°58'0 0.0
2018-Jul-15 04:29N 60°29' E 026°58'0 0.0
2018-Jul-15 03:59N 60°29' E 026°58'0 0.0
2018-Jul-15 03:29N 60°29' E 026°58'0 0.0
2018-Jul-15 02:59N 60°29' E 026°58'0 0.0
2018-Jul-15 02:29N 60°29' E 026°58'0 0.0
2018-Jul-15 01:59N 60°29' E 026°58'0 0.0
2018-Jul-15 01:29N 60°29' E 026°58'0 0.0
2018-Jul-15 00:56N 60°29' E 026°58'0 0.0
2018-Jul-15 00:29N 60°29' E 026°58'0 0.0
2018-Jul-14 23:59N 60°29' E 026°58'0 0.0
2018-Jul-14 23:29N 60°29' E 026°58'0 0.0
2018-Jul-14 22:59N 60°29' E 026°58'0 0.0
2018-Jul-14 22:29N 60°29' E 026°58'0 0.0
2018-Jul-14 21:59N 60°29' E 026°58'0 0.0
2018-Jul-14 21:29N 60°29' E 026°58'0 0.0
2018-Jul-14 20:59N 60°29' E 026°58'0 0.0
2018-Jul-14 20:29N 60°29' E 026°58'0 0.0
2018-Jul-14 19:59N 60°29' E 026°58'0 0.0
2018-Jul-14 19:29N 60°29' E 026°58'0 0.0
2018-Jul-14 18:59N 60°29' E 026°58'0 0.0
2018-Jul-14 18:29N 60°29' E 026°58'0 0.0
2018-Jul-14 17:59N 60°29' E 026°58'0 0.0
2018-Jul-14 17:29N 60°29' E 026°58'0 0.0
2018-Jul-14 16:59N 60°29' E 026°58'0 0.0
2018-Jul-14 16:29N 60°29' E 026°58'0 0.0
2018-Jul-14 15:59N 60°29' E 026°58'0 0.0
2018-Jul-14 15:29N 60°29' E 026°58'0 0.0
2018-Jul-14 14:59N 60°29' E 026°58'0 0.0
2018-Jul-14 14:29N 60°29' E 026°58'0 0.0
2018-Jul-14 13:29N 60°29' E 026°58'0 0.0
2018-Jul-14 12:59N 60°29' E 026°58'0 0.0
2018-Jul-14 12:29N 60°29' E 026°58'0 0.0
2018-Jul-14 11:59N 60°29' E 026°58'0 0.0
2018-Jul-14 11:29N 60°29' E 026°58'0 0.0
2018-Jul-14 10:59N 60°29' E 026°58'0 0.0
2018-Jul-14 10:29N 60°29' E 026°58'0 0.0
2018-Jul-14 09:59N 60°29' E 026°58'0 0.0
2018-Jul-14 09:29N 60°29' E 026°58'0 0.0
2018-Jul-14 08:59N 60°29' E 026°58'0 0.0
2018-Jul-14 08:29N 60°29' E 026°58'0 0.0
2018-Jul-14 07:59N 60°29' E 026°58'0 0.0
2018-Jul-14 07:29N 60°29' E 026°58'0 0.0
2018-Jul-14 06:59N 60°29' E 026°58'0 0.0
2018-Jul-14 06:29N 60°29' E 026°58'0 0.0
2018-Jul-14 05:59N 60°29' E 026°58'0 0.0
2018-Jul-14 05:26N 60°29' E 026°58'0 0.0
2018-Jul-14 04:59N 60°29' E 026°58'0 0.0
2018-Jul-14 04:29N 60°29' E 026°58'0 0.0
2018-Jul-14 03:59N 60°29' E 026°58'0 0.0
2018-Jul-14 03:29N 60°29' E 026°58'0 0.0
2018-Jul-14 02:59N 60°29' E 026°58'0 0.0
2018-Jul-14 02:29N 60°29' E 026°58'0 0.0
2018-Jul-14 01:59N 60°29' E 026°58'0 0.0
2018-Jul-14 01:29N 60°29' E 026°58'0 0.0
2018-Jul-14 00:59N 60°29' E 026°58'0 0.0
2018-Jul-14 00:26N 60°29' E 026°58'0 0.0
2018-Jul-13 23:56N 60°29' E 026°58'0 0.0
2018-Jul-13 23:29N 60°29' E 026°58'0 0.0
2018-Jul-13 22:59N 60°29' E 026°58'0 0.0
2018-Jul-13 22:29N 60°29' E 026°58'0 0.0
2018-Jul-13 21:56N 60°29' E 026°58'0 0.0
2018-Jul-13 21:29N 60°29' E 026°58'0 0.0
2018-Jul-13 20:59N 60°29' E 026°58'0 0.0
2018-Jul-13 20:29N 60°29' E 026°58'0 0.0
2018-Jul-13 19:59N 60°29' E 026°58'0 0.0
2018-Jul-13 19:29N 60°29' E 026°58'0 0.0
2018-Jul-13 18:59N 60°29' E 026°58'0 0.0
2018-Jul-13 18:29N 60°29' E 026°58'0 0.0
2018-Jul-13 17:59N 60°29' E 026°58'0 0.0
2018-Jul-13 17:29N 60°29' E 026°58'0 0.0
2018-Jul-13 16:59N 60°29' E 026°58'0 0.0
2018-Jul-13 16:29N 60°29' E 026°58'0 0.0
2018-Jul-13 15:59N 60°29' E 026°58'0 0.0
2018-Jul-13 15:29N 60°29' E 026°58'0 0.0
2018-Jul-13 14:59N 60°29' E 026°58'0 0.0
2018-Jul-13 14:29N 60°29' E 026°58'0 0.0
2018-Jul-13 13:29N 60°29' E 026°58'0 0.0
2018-Jul-13 12:59N 60°29' E 026°58'0 0.0
2018-Jul-13 12:29N 60°29' E 026°58'0 0.0
2018-Jul-13 11:59N 60°29' E 026°58'0 0.0
2018-Jul-13 11:29N 60°29' E 026°58'0 0.0
2018-Jul-13 10:53N 60°29' E 026°58'0 0.0
2018-Jul-13 10:29N 60°29' E 026°58'0 0.0
2018-Jul-13 09:59N 60°29' E 026°58'0 0.0
2018-Jul-13 09:29N 60°29' E 026°58'0 0.0
2018-Jul-13 08:56N 60°29' E 026°58'0 0.0
2018-Jul-13 08:29N 60°29' E 026°58'0 0.0
2018-Jul-13 07:59N 60°29' E 026°58'0 0.0
2018-Jul-13 07:29N 60°29' E 026°58'0 0.0
2018-Jul-13 06:59N 60°29' E 026°58'0 0.0
2018-Jul-13 06:29N 60°29' E 026°58'0 0.0
2018-Jul-13 05:59N 60°29' E 026°58'0 0.0
2018-Jul-13 05:29N 60°29' E 026°58'0 0.0
2018-Jul-13 04:59N 60°29' E 026°58'0 0.0
2018-Jul-13 04:29N 60°29' E 026°58'0 0.0
2018-Jul-13 03:56N 60°29' E 026°58'0 0.0
2018-Jul-13 03:29N 60°29' E 026°58'0 0.0
2018-Jul-13 02:59N 60°29' E 026°58'0 0.0
2018-Jul-13 02:29N 60°29' E 026°58'0 0.0
2018-Jul-13 01:59N 60°29' E 026°58'0 0.0
2018-Jul-13 01:29N 60°29' E 026°58'0 0.0
2018-Jul-13 00:59N 60°29' E 026°58'0 0.0
2018-Jul-13 00:29N 60°29' E 026°58'0 0.0
2018-Jul-12 23:59N 60°29' E 026°58'0 0.0
2018-Jul-12 23:29N 60°29' E 026°58'0 0.0
2018-Jul-12 22:59N 60°29' E 026°58'0 0.0
2018-Jul-12 22:29N 60°29' E 026°58'0 0.0
2018-Jul-12 21:59N 60°29' E 026°58'0 0.0
2018-Jul-12 21:29N 60°29' E 026°58'0 0.0
2018-Jul-12 20:59N 60°29' E 026°58'0 0.0
2018-Jul-12 20:29N 60°29' E 026°58'0 0.0
2018-Jul-12 19:59N 60°29' E 026°58'0 0.0
2018-Jul-12 19:29N 60°29' E 026°58'0 0.0
2018-Jul-12 18:59N 60°29' E 026°58'0 0.0
2018-Jul-12 18:29N 60°29' E 026°58'0 0.0
2018-Jul-12 17:59N 60°29' E 026°58'0 0.0
2018-Jul-12 17:29N 60°29' E 026°58'0 0.0
2018-Jul-12 16:59N 60°29' E 026°58'0 0.0
2018-Jul-12 16:29N 60°29' E 026°58'0 0.0
2018-Jul-12 15:59N 60°29' E 026°58'0 0.0
2018-Jul-12 15:29N 60°29' E 026°58'0 0.0
2018-Jul-12 14:59N 60°29' E 026°58'0 0.0
2018-Jul-12 14:29N 60°29' E 026°58'0 0.0
2018-Jul-12 13:56N 60°29' E 026°58'0 0.0
2018-Jul-12 13:29N 60°29' E 026°58'0 0.0
2018-Jul-12 12:59N 60°29' E 026°58'0 0.0
2018-Jul-12 12:29N 60°29' E 026°58'0 0.0
2018-Jul-12 11:59N 60°29' E 026°58'0 0.0
2018-Jul-12 11:26N 60°29' E 026°58'0 0.0
2018-Jul-12 10:59N 60°29' E 026°58'0 0.1
2018-Jul-12 10:31N 60°29' E 026°59'2 3.4
2018-Jul-12 10:01N 60°27' E 026°59'510.0
2018-Jul-12 09:31N 60°24' E 026°51'611.1
2018-Jul-12 09:01N 60°22' E 026°41'611.1
2018-Jul-12 08:31N 60°18' E 026°33'611.1
2018-Jul-12 08:01N 60°14' E 026°25'4 7.0
2018-Jul-12 07:30N 60°11' E 026°20'0 0.1
2018-Jul-12 07:00N 60°11' E 026°20'0 0.0
2018-Jul-12 06:30N 60°11' E 026°20'0 0.0
2018-Jul-12 06:00N 60°11' E 026°20'0 0.0
2018-Jul-12 05:30N 60°11' E 026°20'0 0.0
2018-Jul-12 05:00N 60°11' E 026°20'0 0.0
2018-Jul-12 04:31N 60°11' E 026°20'0 0.0
2018-Jul-12 04:00N 60°11' E 026°20'0 0.0
2018-Jul-12 03:30N 60°11' E 026°20'0 0.0
2018-Jul-12 02:57N 60°11' E 026°20'0 0.0
2018-Jul-12 02:30N 60°11' E 026°20'0 0.0
2018-Jul-12 01:57N 60°11' E 026°20'0 0.0
2018-Jul-12 01:30N 60°11' E 026°20'0 0.0
2018-Jul-12 01:00N 60°11' E 026°20'0 0.0
2018-Jul-12 00:30N 60°11' E 026°20'0 0.0
2018-Jul-11 23:59N 60°11' E 026°20'0 0.0
2018-Jul-11 23:28N 60°11' E 026°20'0 0.0
2018-Jul-11 23:00N 60°11' E 026°20'0 0.2
2018-Jul-11 22:30N 60°11' E 026°20'2 3.1
2018-Jul-11 22:00N 60°10' E 026°19'5 9.4
2018-Jul-11 21:30N 60°05' E 026°15'4610.4
2018-Jul-11 17:07N 59°46' E 024°53'110.4
2018-Jul-11 16:59N 59°45' E 024°51'510.3
2018-Jul-11 16:31N 59°44' E 024°41'510.2
2018-Jul-11 16:00N 59°41' E 024°32'510.5
2018-Jul-11 15:31N 59°39' E 024°23'710.5
2018-Jul-11 14:50N 59°36' E 024°11'310.3
2018-Jul-11 14:30N 59°34' E 024°05'610.4
2018-Jul-11 13:56N 59°32' E 023°54'410.4
2018-Jul-11 13:30N 59°29' E 023°47'510.2
2018-Jul-11 13:01N 59°27' E 023°38'810.2
2018-Jul-11 12:14N 59°24' E 023°24'5810.2
2018-Jul-11 06:32N 58°55' E 021°46'010.3
2018-Jul-11 06:30N 58°55' E 021°45'3110.5
2018-Jul-11 03:36N 58°26' E 021°28'  

Dump ship's entire track history